Time;durP1;ratioP1;P1;durP2;ratioP2;P2;SDS_P1;SDS_P2;PMS_P1;PMS_P2;Temp;Humidity;BMP_temperature;BMP_pressure;BME280_temperature;BME280_humidity;BME280_pressure;Samples;Min_cycle;Max_cycle;Signal;HPM_P1;HPM_P2
2020/12/08 00:02:42;;;;;;;38.00;17.60;;;;;;;0.43;100.00;98519.22;4370502;80;44469;-76
2020/12/08 00:08:44;;;;;;;35.68;15.48;;;;;;;0.36;100.00;98519.59;4353171;80;44481;-74
2020/12/08 00:14:48;;;;;;;43.75;17.75;;;;;;;0.50;100.00;98528.09;4350861;80;43585;-77
2020/12/08 00:20:50;;;;;;;42.00;17.60;;;;;;;0.48;100.00;98522.16;4341210;80;44429;-74
2020/12/08 00:26:53;;;;;;;39.53;16.40;;;;;;;0.47;100.00;98519.69;4340090;80;44503;-75
2020/12/08 00:32:55;;;;;;;41.80;17.75;;;;;;;0.30;100.00;98520.32;4371370;80;44434;-74
2020/12/08 00:38:57;;;;;;;38.15;16.32;;;;;;;0.37;100.00;98529.20;4359081;81;28582;-74
2020/12/08 00:45:01;;;;;;;35.73;16.20;;;;;;;0.41;100.00;98531.28;4345364;81;44079;-75
2020/12/08 00:51:04;;;;;;;41.13;16.87;;;;;;;0.59;100.00;98526.19;4318907;80;44444;-73
2020/12/08 00:57:06;;;;;;;35.90;16.45;;;;;;;0.50;100.00;98539.16;4219410;83;28587;-74
2020/12/08 01:03:09;;;;;;;39.65;17.70;;;;;;;0.55;100.00;98537.63;4212425;83;44453;-74
2020/12/08 01:09:12;;;;;;;33.88;15.05;;;;;;;0.54;100.00;98543.11;4251477;83;44126;-73
2020/12/08 01:15:14;;;;;;;41.10;16.87;;;;;;;0.39;100.00;98539.91;4248923;83;44426;-73
2020/12/08 01:21:18;;;;;;;32.85;15.25;;;;;;;0.34;100.00;98538.30;4257745;83;44079;-75
2020/12/08 01:27:21;;;;;;;34.05;15.30;;;;;;;0.22;100.00;98530.47;4216595;83;44136;-74
2020/12/08 01:33:23;;;;;;;35.60;15.35;;;;;;;0.11;100.00;98530.36;4225054;83;44110;-74
2020/12/08 01:39:26;;;;;;;34.70;15.45;;;;;;;0.07;100.00;98521.16;4224977;84;44110;-75
2020/12/08 01:45:28;;;;;;;33.92;14.47;;;;;;;0.05;100.00;98517.84;4208269;84;44154;-76
2020/12/08 01:51:33;;;;;;;31.35;13.60;;;;;;;0.06;100.00;98518.19;4273311;80;44081;-74
2020/12/08 01:57:35;;;;;;;29.23;13.03;;;;;;;0.03;100.00;98519.36;4327804;80;43404;-73
2020/12/08 02:03:41;;;;;;;30.90;13.45;;;;;;;-0.02;100.00;98520.37;4314172;81;44082;-73
2020/12/08 02:09:44;;;;;;;30.10;14.07;;;;;;;-0.03;100.00;98521.37;4315434;81;28558;-74
2020/12/08 02:15:48;;;;;;;32.45;13.58;;;;;;;0.10;100.00;98519.47;4356109;81;44151;-74
2020/12/08 02:21:50;;;;;;;27.32;13.13;;;;;;;-0.04;100.00;98524.53;4367363;80;43422;-74
2020/12/08 02:27:52;;;;;;;29.45;13.45;;;;;;;-0.13;100.00;98519.45;4353856;80;28632;-75
2020/12/08 02:33:55;;;;;;;27.42;14.13;;;;;;;-0.07;100.00;98524.05;4338881;80;43422;-75
2020/12/08 02:39:58;;;;;;;33.98;14.28;;;;;;;-0.27;100.00;98543.47;4351541;80;44104;-74
2020/12/08 02:46:01;;;;;;;28.20;12.93;;;;;;;-0.32;100.00;98536.89;4347010;80;43382;-74
2020/12/08 02:52:03;;;;;;;28.50;13.00;;;;;;;-0.21;100.00;98538.34;4332518;81;43871;-74
2020/12/08 02:58:07;;;;;;;25.25;12.07;;;;;;;-0.31;100.00;98527.97;4377890;80;42916;-74
2020/12/08 03:04:09;;;;;;;28.38;12.85;;;;;;;-0.34;100.00;98531.45;4377373;80;43386;-74
2020/12/08 03:10:16;;;;;;;24.32;11.33;;;;;;;-0.28;100.00;98542.66;4352174;80;43611;-74
2020/12/08 03:16:18;;;;;;;28.83;12.30;;;;;;;-0.28;100.00;98540.02;4381828;80;28535;-74
2020/12/08 03:22:22;;;;;;;25.70;12.43;;;;;;;-0.34;100.00;98543.34;4282913;81;43089;-75
2020/12/08 03:28:26;;;;;;;30.35;13.78;;;;;;;-0.35;100.00;98546.50;4387951;80;43426;-74
2020/12/08 03:34:29;;;;;;;26.77;11.60;;;;;;;-0.34;100.00;98538.06;4388301;81;43248;-75
2020/12/08 03:40:31;;;;;;;27.82;12.33;;;;;;;-0.39;100.00;98542.53;4302361;81;43316;-74
2020/12/08 03:46:37;;;;;;;27.87;11.80;;;;;;;-0.38;100.00;98532.80;4365405;79;43451;-74
2020/12/08 03:52:40;;;;;;;24.50;11.00;;;;;;;-0.48;100.00;98531.20;4292162;81;28598;-75
2020/12/08 03:58:44;;;;;;;26.52;11.25;;;;;;;-0.52;100.00;98519.34;4298456;81;42862;-74
2020/12/08 04:04:49;;;;;;;24.20;11.63;;;;;;;-0.52;100.00;98521.14;4291169;81;42867;-74
2020/12/08 04:10:51;;;;;;;24.87;11.08;;;;;;;-0.47;100.00;98538.60;4276303;83;43215;-74
2020/12/08 04:16:53;;;;;;;29.57;12.45;;;;;;;-0.45;100.00;98548.52;4255726;81;43399;-75
2020/12/08 04:22:55;;;;;;;25.52;11.05;;;;;;;-0.50;100.00;98560.92;4350069;80;42901;-74
2020/12/08 04:29:00;;;;;;;25.23;11.50;;;;;;;-0.49;100.00;98568.33;4355790;80;43645;-74
2020/12/08 04:35:03;;;;;;;30.37;12.58;;;;;;;-0.51;100.00;98571.16;4365832;81;43451;-74
2020/12/08 04:41:05;;;;;;;26.87;11.63;;;;;;;-0.54;100.00;98550.88;4342243;81;43213;-74
2020/12/08 04:47:13;;;;;;;25.43;10.85;;;;;;;-0.52;100.00;98547.07;4344806;80;42885;-74
2020/12/08 04:53:15;;;;;;;25.80;11.78;;;;;;;-0.64;100.00;98555.02;4335921;81;42890;-74
2020/12/08 04:59:22;;;;;;;21.82;10.38;;;;;;;-0.54;100.00;98575.95;4338611;80;44439;-74
2020/12/08 05:05:24;;;;;;;25.32;11.15;;;;;;;-0.58;100.00;98582.87;4347246;80;43252;-75
2020/12/08 05:11:28;;;;;;;25.20;10.93;;;;;;;-0.65;100.00;98571.86;4339067;80;43596;-74
2020/12/08 05:17:31;;;;;;;28.12;11.40;;;;;;;-0.47;100.00;98567.66;4359144;80;43479;-74
2020/12/08 05:23:47;;;;;;;22.40;10.70;;;;;;;-0.55;100.00;98565.07;4350779;81;44485;-74
2020/12/08 05:29:49;;;;;;;22.77;10.13;;;;;;;-0.66;100.00;98563.61;4339639;80;44428;-74
2020/12/08 05:35:54;;;;;;;23.52;10.18;;;;;;;-0.66;100.00;98567.56;4333012;80;44488;-74
2020/12/08 05:41:58;;;;;;;;;;;;;;;-0.73;100.00;98575.34;4365947;80;28587;-72
2020/12/08 05:48:00;;;;;;;26.10;11.35;;;;;;;-0.67;100.00;98583.09;4337889;80;42903;-74
2020/12/08 05:54:02;;;;;;;23.38;11.08;;;;;;;-0.90;100.00;98599.64;4354366;81;44478;-74
2020/12/08 06:00:07;;;;;;;22.52;10.82;;;;;;;-0.84;100.00;98605.55;4336505;80;44464;-73
2020/12/08 06:06:11;;;;;;;28.05;12.78;;;;;;;-0.95;100.00;98605.42;4352884;81;43425;-73
2020/12/08 06:12:16;;;;;;;26.30;10.78;;;;;;;-0.98;100.00;98604.45;4346916;81;42887;-73
2020/12/08 06:18:36;;;;;;;22.33;10.67;;;;;;;-0.94;100.00;98609.70;4365165;80;28543;-73
2020/12/08 06:24:56;;;;;;;23.60;11.05;;;;;;;-0.97;100.00;98618.45;4341453;81;43214;-74
2020/12/08 06:31:02;;;;;;;24.92;11.10;;;;;;;-1.02;100.00;98620.27;4354441;80;43263;-74
2020/12/08 06:37:08;;;;;;;24.63;11.17;;;;;;;-1.08;100.00;98619.12;4288207;81;28582;-75
2020/12/08 06:43:10;;;;;;;22.67;10.55;;;;;;;-1.13;100.00;98613.02;4318789;81;44755;-75
2020/12/08 06:49:12;;;;;;;23.98;11.53;;;;;;;-1.03;100.00;98618.14;4301072;81;42947;-74
2020/12/08 06:55:14;;;;;;;25.00;11.35;;;;;;;-1.03;100.00;98624.73;4288847;81;43368;-74
2020/12/08 07:01:16;;;;;;;24.30;10.90;;;;;;;-0.85;100.00;98642.18;4360533;80;42889;-73
2020/12/08 07:07:18;;;;;;;23.12;10.43;;;;;;;-0.77;100.00;98638.73;4346259;80;44517;-73
2020/12/08 07:13:21;;;;;;;29.75;12.73;;;;;;;-0.67;100.00;98643.33;4353337;80;43421;-73
2020/12/08 07:19:24;;;;;;;24.80;11.70;;;;;;;-0.76;100.00;98652.25;4364424;80;43307;-73
2020/12/08 07:25:27;;;;;;;23.75;10.50;;;;;;;-0.91;100.00;98637.59;4354584;80;43703;-73
2020/12/08 07:31:30;;;;;;;23.45;11.43;;;;;;;-0.76;100.00;98643.82;4389501;80;44450;-73
2020/12/08 07:37:37;;;;;;;22.42;11.08;;;;;;;-0.58;100.00;98646.77;4342721;80;44501;-74
2020/12/08 07:43:40;;;;;;;26.10;11.38;;;;;;;-0.49;100.00;98647.56;4253665;82;42901;-72
2020/12/08 07:49:43;;;;;;;24.52;10.40;;;;;;;-0.52;100.00;98650.07;4310347;82;42882;-74
2020/12/08 07:55:46;;;;;;;28.10;11.95;;;;;;;-0.44;100.00;98655.30;4289009;81;43415;-75
2020/12/08 08:01:49;;;;;;;23.77;11.88;;;;;;;-0.33;100.00;98662.54;4321224;80;43237;-75
2020/12/08 08:07:52;;;;;;;23.07;10.43;;;;;;;-0.29;100.00;98667.83;4342968;80;44451;-74
2020/12/08 08:13:54;;;;;;;23.20;11.08;;;;;;;-0.23;100.00;98669.78;4341093;80;44499;-79
2020/12/08 08:19:56;;;;;;;26.07;11.93;;;;;;;-0.24;100.00;98656.75;4326615;81;43045;-83
2020/12/08 08:25:59;;;;;;;21.97;11.38;;;;;;;-0.31;100.00;98661.90;4302801;82;43647;-81
2020/12/08 08:32:01;;;;;;;29.52;12.95;;;;;;;-0.11;100.00;98660.16;4263341;81;43387;-76
2020/12/08 08:38:04;;;;;;;26.77;12.18;;;;;;;-0.03;100.00;98676.83;4285218;81;43238;-77
2020/12/08 08:44:06;;;;;;;26.80;12.45;;;;;;;0.02;100.00;98680.76;4326823;80;43213;-74
2020/12/08 08:50:08;;;;;;;27.50;12.35;;;;;;;0.09;100.00;98675.13;4336102;80;43954;-75
2020/12/08 08:56:10;;;;;;;26.97;11.93;;;;;;;0.23;100.00;98680.19;4355074;80;43296;-74
2020/12/08 09:02:13;;;;;;;26.17;11.88;;;;;;;0.23;100.00;98687.60;4348102;81;43085;-75
2020/12/08 09:08:18;;;;;;;25.62;11.55;;;;;;;0.35;100.00;98693.83;4353635;81;42891;-76
2020/12/08 09:14:21;;;;;;;28.45;13.72;;;;;;;0.32;100.00;98687.57;4352485;81;43430;-77
2020/12/08 09:20:24;;;;;;;28.52;12.53;;;;;;;0.51;100.00;98696.39;4353568;81;43404;-75
2020/12/08 09:26:26;;;;;;;30.43;13.85;;;;;;;0.59;100.00;98682.28;4327923;81;43659;-76
2020/12/08 09:32:29;;;;;;;31.55;14.18;;;;;;;0.46;100.00;98693.43;4314435;81;44114;-76
2020/12/08 09:38:31;;;;;;;29.42;13.98;;;;;;;0.47;100.00;98687.66;4331213;80;43387;-82
2020/12/08 09:44:34;;;;;;;27.50;13.05;;;;;;;0.51;100.00;98687.62;4359173;80;43438;-75
2020/12/08 09:50:36;;;;;;;28.73;13.60;;;;;;;0.66;100.00;98702.25;4360000;80;43434;-78
2020/12/08 09:56:39;;;;;;;28.80;13.20;;;;;;;0.66;100.00;98688.53;4353838;80;43383;-77
2020/12/08 10:02:41;;;;;;;31.37;14.68;;;;;;;0.83;100.00;98712.22;4367077;80;44151;-76
2020/12/08 10:08:43;;;;;;;28.98;13.48;;;;;;;0.93;100.00;98702.73;4312698;81;43407;-78
2020/12/08 10:14:47;;;;;;;32.48;13.60;;;;;;;0.86;100.00;98692.52;4319595;81;44083;-77
2020/12/08 10:20:49;;;;;;;28.55;13.32;;;;;;;1.03;100.00;98687.92;4313600;81;43438;-76
2020/12/08 10:26:52;;;;;;;24.43;11.48;;;;;;;1.05;100.00;98681.98;4327565;81;28605;-81
2020/12/08 10:32:55;;;;;;;34.10;13.55;;;;;;;1.24;100.00;98686.75;4312479;81;44116;-77
2020/12/08 10:38:57;;;;;;;24.27;10.60;;;;;;;1.15;100.00;98693.63;4303189;81;28578;-77
2020/12/08 10:45:00;;;;;;;23.70;12.13;;;;;;;1.31;100.00;98692.18;4304445;81;43773;-78
2020/12/08 10:51:03;;;;;;;26.57;12.33;;;;;;;1.33;100.00;98683.55;4321481;82;43065;-75
2020/12/08 10:57:05;;;;;;;27.48;13.53;;;;;;;1.39;100.00;98676.19;4319284;81;28582;-78
2020/12/08 11:03:08;;;;;;;28.98;13.10;;;;;;;1.26;100.00;98687.91;4390741;80;28588;-76
2020/12/08 11:09:10;;;;;;;35.05;14.60;;;;;;;1.32;100.00;98687.20;4355661;80;44112;-77
2020/12/08 11:15:12;;;;;;;31.48;14.85;;;;;;;1.13;100.00;98679.23;4404414;80;44107;-77
2020/12/08 11:21:17;;;;;;;27.13;12.50;;;;;;;1.20;100.00;98690.77;4366222;80;43445;-77
2020/12/08 11:27:20;;;;;;;29.73;12.87;;;;;;;1.39;100.00;98699.22;4370628;80;28574;-78
2020/12/08 11:33:22;;;;;;;24.23;12.60;;;;;;;1.41;100.00;98697.20;4368677;81;43782;-77
2020/12/08 11:39:24;;;;;;;36.73;15.00;;;;;;;1.53;100.00;98685.68;4363649;80;44439;-76
2020/12/08 11:45:26;;;;;;;30.43;13.28;;;;;;;1.45;100.00;98669.86;4349471;81;28556;-82
2020/12/08 11:51:29;;;;;;;29.05;12.85;;;;;;;1.58;100.00;98705.02;4360559;81;28548;-79
2020/12/08 11:57:31;;;;;;;32.93;16.05;;;;;;;1.70;100.00;98680.19;4372897;80;28561;-79
2020/12/08 12:03:34;;;;;;;31.62;15.18;;;;;;;1.55;100.00;98676.20;4394545;80;44111;-75
2020/12/08 12:09:37;;;;;;;28.85;13.15;;;;;;;1.71;100.00;98681.34;4384474;80;43440;-76
2020/12/08 12:15:39;;;;;;;27.93;14.10;;;;;;;1.88;100.00;98671.38;4380104;80;28584;-77
2020/12/08 12:21:41;;;;;;;41.05;15.72;;;;;;;1.87;100.00;98672.88;4358784;80;28595;-78
2020/12/08 12:27:43;;;;;;;32.85;15.60;;;;;;;1.63;100.00;98666.36;4305749;81;28605;-75
2020/12/08 12:33:49;;;;;;;28.65;12.60;;;;;;;1.67;100.00;98658.36;4310762;81;43458;-75
2020/12/08 12:39:51;;;;;;;30.50;14.07;;;;;;;1.84;100.00;98647.58;4292763;81;28680;-74
2020/12/08 12:45:53;;;;;;;28.80;13.85;;;;;;;1.80;100.00;98662.19;4352825;81;43406;-75
2020/12/08 12:51:57;;;;;;;31.45;14.03;;;;;;;1.63;100.00;98660.23;4344995;80;43806;-73
2020/12/08 12:58:00;;;;;;;32.38;15.28;;;;;;;1.54;100.00;98660.83;4326059;81;28583;-74
2020/12/08 13:04:03;;;;;;;33.30;15.68;;;;;;;1.50;100.00;98659.52;4354270;80;28578;-74
2020/12/08 13:10:05;;;;;;;30.52;13.60;;;;;;;1.39;100.00;98652.34;4353403;81;29094;-76
2020/12/08 13:16:10;;;;;;;30.05;14.13;;;;;;;1.55;100.00;98660.31;4354076;80;28582;-79
2020/12/08 13:22:13;;;;;;;34.10;15.65;;;;;;;1.52;100.00;98666.30;4351360;80;28558;-78
2020/12/08 13:28:15;;;;;;;27.25;13.22;;;;;;;1.45;100.00;98668.02;4349350;80;28635;-82
2020/12/08 13:34:17;;;;;;;33.33;14.60;;;;;;;1.44;100.00;98678.81;4357136;80;28539;-77
2020/12/08 13:40:20;;;;;;;30.48;14.68;;;;;;;1.50;100.00;98680.23;4347502;81;28584;-77
2020/12/08 13:46:24;;;;;;;36.35;16.25;;;;;;;1.41;100.00;98692.40;4338719;81;28617;-78
2020/12/08 13:52:26;;;;;;;33.05;15.35;;;;;;;1.24;100.00;98699.99;4347477;81;28580;-79
2020/12/08 13:58:28;;;;;;;35.58;15.72;;;;;;;1.16;100.00;98705.38;4360888;81;44273;-76
2020/12/08 14:04:30;;;;;;;32.73;16.00;;;;;;;1.08;100.00;98700.15;4363568;81;44078;-76
2020/12/08 14:10:33;;;;;;;29.90;14.83;;;;;;;0.97;100.00;98710.16;4342882;81;44082;-77
2020/12/08 14:16:35;;;;;;;31.30;14.63;;;;;;;0.86;100.00;98707.92;4348909;80;44096;-77
2020/12/08 14:22:37;;;;;;;36.08;16.02;;;;;;;0.79;100.00;98709.12;4356849;81;44317;-79
2020/12/08 14:28:41;;;;;;;34.53;15.85;;;;;;;0.64;100.00;98710.86;4368275;81;44217;-78
2020/12/08 14:34:44;;;;;;;33.83;15.15;;;;;;;0.58;100.00;98720.84;4370294;80;28569;-78
2020/12/08 14:40:46;;;;;;;31.65;14.93;;;;;;;0.44;100.00;98731.66;4304662;81;44081;-78
2020/12/08 14:46:49;;;;;;;34.03;15.60;;;;;;;0.39;100.00;98729.53;4294595;81;28578;-77
2020/12/08 14:52:52;;;;;;;34.23;15.05;;;;;;;0.29;100.00;98731.05;4284312;82;44145;-79
2020/12/08 14:58:56;;;;;;;36.13;16.73;;;;;;;0.21;100.00;98735.03;4368920;80;44436;-79
2020/12/08 15:04:59;;;;;;;30.37;15.38;;;;;;;0.12;100.00;98754.08;4385098;80;28934;-79
2020/12/08 15:11:02;;;;;;;35.50;15.93;;;;;;;0.04;100.00;98758.06;4379881;80;44295;-79
2020/12/08 15:17:05;;;;;;;37.55;16.15;;;;;;;0.01;100.00;98765.02;4383631;80;44473;-79
2020/12/08 15:23:09;;;;;;;31.40;15.10;;;;;;;-0.07;100.00;98778.58;4366836;80;44100;-78
2020/12/08 15:29:11;;;;;;;36.05;16.73;;;;;;;-0.13;100.00;98774.47;4357443;80;44091;-81
2020/12/08 15:35:13;;;;;;;37.28;16.10;;;;;;;-0.18;100.00;98774.48;4397979;80;44439;-81
2020/12/08 15:41:18;;;;;;;33.13;16.60;;;;;;;-0.24;100.00;98775.14;4388284;80;44099;-79
2020/12/08 15:47:21;;;;;;;40.23;16.32;;;;;;;-0.33;100.00;98782.75;4369325;80;44425;-79
2020/12/08 15:53:23;;;;;;;38.00;17.30;;;;;;;-0.39;100.00;98788.20;4362432;80;44449;-80
2020/12/08 15:59:26;;;;;;;41.00;16.55;;;;;;;-0.40;100.00;98790.52;4295606;81;44481;-79
2020/12/08 16:05:28;;;;;;;33.63;15.75;;;;;;;-0.46;100.00;98803.09;4385123;80;44084;-79
2020/12/08 16:11:31;;;;;;;39.67;17.62;;;;;;;-0.50;100.00;98808.34;4357949;81;44436;-80
2020/12/08 16:17:42;;;;;;;35.45;16.32;;;;;;;-0.58;100.00;98806.03;4350622;80;44116;-80
2020/12/08 16:23:47;;;;;;;38.48;17.10;;;;;;;-0.63;100.00;98799.59;4349631;81;44439;-78
2020/12/08 16:29:50;;;;;;;36.85;16.23;;;;;;;-0.74;100.00;98805.52;4303637;81;44424;-78
2020/12/08 16:35:52;;;;;;;40.95;18.17;;;;;;;-0.76;100.00;98801.42;4380920;80;44473;-78
2020/12/08 16:41:54;;;;;;;37.58;16.50;;;;;;;-0.76;100.00;98798.27;4358708;81;44427;-78
2020/12/08 16:47:56;;;;;;;34.48;16.70;;;;;;;-0.82;100.00;98795.45;4332965;82;44290;-78
2020/12/08 16:54:03;;;;;;;39.60;16.02;;;;;;;-0.85;100.00;98805.36;4307863;81;28589;-79
2020/12/08 17:00:06;;;;;;;43.30;17.85;;;;;;;-0.87;100.00;98810.47;4363818;80;43317;-79
2020/12/08 17:06:08;;;;;;;35.85;17.12;;;;;;;-0.96;100.00;98806.16;4363636;80;44250;-81
2020/12/08 17:12:18;;;;;;;40.92;18.52;;;;;;;-1.01;100.00;98810.13;4361403;81;44441;-79
2020/12/08 17:18:20;;;;;;;36.55;16.00;;;;;;;-1.05;100.00;98801.37;4367936;81;44469;-81
2020/12/08 17:24:22;;;;;;;42.33;17.67;;;;;;;-1.06;100.00;98803.17;4362617;80;44517;-79
2020/12/08 17:30:26;;;;;;;40.25;16.70;;;;;;;-1.12;100.00;98798.55;4369516;81;44494;-78
2020/12/08 17:36:37;;;;;;;45.08;19.75;;;;;;;-1.12;100.00;98804.64;4351630;81;43789;-79
2020/12/08 17:42:42;;;;;;;41.15;19.10;;;;;;;-1.19;100.00;98808.92;4329588;80;44455;-79
2020/12/08 17:48:44;;;;;;;43.38;18.85;;;;;;;-1.20;100.00;98815.16;4362618;81;43777;-78
2020/12/08 17:54:46;;;;;;;46.15;19.90;;;;;;;-1.29;100.00;98816.96;4325164;80;43748;-80
2020/12/08 18:00:51;;;;;;;46.37;21.15;;;;;;;-1.26;100.00;98810.55;4376495;80;43818;-78
2020/12/08 18:06:56;;;;;;;44.13;20.05;;;;;;;-1.29;100.00;98816.16;4379906;80;43786;-78
2020/12/08 18:12:58;;;;;;;43.25;18.75;;;;;;;-1.34;100.00;98817.11;4375769;79;28571;-80
2020/12/08 18:19:01;;;;;;;45.15;19.92;;;;;;;-1.41;100.00;98820.41;4400484;79;43732;-78
2020/12/08 18:25:03;;;;;;;42.65;19.55;;;;;;;-1.43;100.00;98821.53;4371371;80;43732;-79
2020/12/08 18:31:05;;;;;;;39.50;18.05;;;;;;;-1.50;100.00;98824.47;4381392;80;44427;-80
2020/12/08 18:37:09;;;;;;;45.40;20.40;;;;;;;-1.47;100.00;98823.66;4394792;81;43733;-82
2020/12/08 18:43:11;;;;;;;44.15;18.87;;;;;;;-1.54;100.00;98821.31;4373088;81;43794;-81
2020/12/08 18:49:14;;;;;;;44.98;19.12;;;;;;;-1.55;100.00;98827.09;4381636;80;43737;-82
2020/12/08 18:55:17;;;;;;;48.80;20.57;;;;;;;-1.55;100.00;98816.55;4379804;80;43840;-82
2020/12/08 19:01:20;;;;;;;47.25;19.87;;;;;;;-1.66;100.00;98818.63;4321172;81;43734;-80
2020/12/08 19:07:22;;;;;;;47.65;21.23;;;;;;;-1.64;100.00;98820.13;4387580;80;43785;-87
2020/12/08 19:13:25;;;;;;;46.05;19.50;;;;;;;-1.62;100.00;98818.16;4356645;80;43773;-81
2020/12/08 19:19:27;;;;;;;52.75;21.57;;;;;;;-1.52;100.00;98799.56;4360903;81;44139;-79
2020/12/08 19:25:30;;;;;;;51.23;21.12;;;;;;;-1.51;100.00;98806.99;4354216;80;43572;-80
2020/12/08 19:31:41;;;;;;;52.35;23.35;;;;;;;-1.41;100.00;98805.89;4369735;80;44112;-79
2020/12/08 19:37:44;;;;;;;43.87;20.88;;;;;;;-1.33;100.00;98801.61;4367086;81;43773;-80
2020/12/08 19:43:52;;;;;;;45.63;20.23;;;;;;;-1.28;100.00;98800.14;4360179;80;43733;-80
2020/12/08 19:49:57;;;;;;;48.28;21.37;;;;;;;-1.14;100.00;98802.66;4347336;80;44455;-80
2020/12/08 19:55:54;;;;;;;48.95;21.15;;;;;;;-1.16;100.00;98803.80;4364866;80;43816;-80
2020/12/08 20:01:57;;;;;;;54.20;21.77;;;;;;;-1.15;100.00;98797.05;4349389;81;44141;-80
2020/12/08 20:07:59;;;;;;;45.43;20.88;;;;;;;-1.02;100.00;98792.64;4342202;81;43767;-80
2020/12/08 20:14:01;;;;;;;43.13;19.48;;;;;;;-0.88;100.00;98807.50;4340823;80;43735;-78
2020/12/08 20:20:06;;;;;;;49.85;20.68;;;;;;;-0.86;100.00;98796.28;4330360;81;43729;-79
2020/12/08 20:26:09;;;;;;;46.68;20.77;;;;;;;-0.80;100.00;98793.47;4310313;80;43732;-81
2020/12/08 20:32:13;;;;;;;47.78;21.27;;;;;;;-0.68;100.00;98795.31;4333109;80;43750;-81
2020/12/08 20:38:17;;;;;;;41.20;20.37;;;;;;;-0.62;100.00;98799.44;4347292;80;43765;-80
2020/12/08 20:44:19;;;;;;;50.60;20.75;;;;;;;-0.58;100.00;98806.03;4351267;81;44439;-81
2020/12/08 20:50:21;;;;;;;43.17;20.37;;;;;;;-0.63;100.00;98814.11;4362827;80;43790;-81
2020/12/08 20:56:23;;;;;;;41.98;19.77;;;;;;;-0.57;100.00;98816.11;4330269;80;43682;-80
2020/12/08 21:02:26;;;;;;;40.38;19.07;;;;;;;-0.46;100.00;98821.58;4347089;80;44525;-82
2020/12/08 21:08:29;;;;;;;48.85;21.37;;;;;;;-0.42;100.00;98830.81;4346053;80;44453;-83
2020/12/08 21:14:31;;;;;;;44.35;20.50;;;;;;;-0.43;100.00;98823.36;4356958;80;43796;-82
2020/12/08 21:20:34;;;;;;;50.50;23.32;;;;;;;-0.32;100.00;98827.98;4367026;81;44467;-80
2020/12/08 21:26:36;;;;;;;42.78;19.70;;;;;;;-0.41;100.00;98819.25;4363432;80;28607;-77
2020/12/08 21:32:43;;;;;;;46.50;20.30;;;;;;;-0.42;100.00;98817.59;4367711;80;43769;-76
2020/12/08 21:38:45;;;;;;;48.42;22.13;;;;;;;-0.40;100.00;98822.22;4331609;80;44541;-76
2020/12/08 21:44:48;;;;;;;46.75;21.48;;;;;;;-0.33;100.00;98818.41;4345571;80;43757;-77
2020/12/08 21:50:51;;;;;;;45.48;19.65;;;;;;;-0.41;100.00;98821.89;4367973;80;43753;-77
2020/12/08 21:56:52;;;;;;;56.75;22.22;;;;;;;-0.20;100.00;98820.56;4353824;80;44150;-77
2020/12/08 22:02:56;;;;;;;51.65;22.75;;;;;;;-0.24;100.00;98828.50;4346487;80;43782;-78
2020/12/08 22:08:58;;;;;;;46.73;21.15;;;;;;;-0.26;100.00;98820.73;4348825;80;43737;-75
2020/12/08 22:15:00;;;;;;;45.63;20.95;;;;;;;-0.30;100.00;98812.30;4336601;80;43729;-78
2020/12/08 22:21:02;;;;;;;53.30;25.27;;;;;;;-0.31;100.00;98816.45;4361568;80;44080;-76
2020/12/08 22:27:04;;;;;;;56.28;24.85;;;;;;;-0.27;100.00;98811.16;4356809;80;44124;-76
2020/12/08 22:33:06;;;;;;;53.83;23.67;;;;;;;-0.34;100.00;98808.84;4338357;81;44133;-75
2020/12/08 22:39:09;;;;;;;65.28;26.45;;;;;;;-0.31;100.00;98814.63;4330780;80;43386;-74
2020/12/08 22:45:13;;;;;;;55.45;23.75;;;;;;;-0.45;100.00;98806.05;4347299;80;44140;-76
2020/12/08 22:51:15;;;;;;;51.77;21.37;;;;;;;-0.39;100.00;98809.34;4349651;81;43868;-73
2020/12/08 22:57:17;;;;;;;57.27;22.13;;;;;;;-0.40;100.00;98805.56;4342040;81;44113;-73
2020/12/08 23:10:24;;;;;;;53.40;21.80;;;;;;;-0.27;100.00;98794.46;4393867;79;259279;-76
2020/12/08 23:16:26;;;;;;;54.85;22.35;;;;;;;-0.31;100.00;98793.48;4419207;79;44079;-76
2020/12/08 23:22:28;;;;;;;48.78;20.77;;;;;;;-0.51;100.00;98788.22;4415238;79;44091;-74
2020/12/08 23:28:30;;;;;;;47.80;21.27;;;;;;;-0.26;100.00;98777.61;4425798;79;43747;-74
2020/12/08 23:34:33;;;;;;;48.75;20.68;;;;;;;-0.26;100.00;98774.48;4398469;79;43788;-74
2020/12/08 23:40:35;;;;;;;44.48;20.05;;;;;;;-0.28;100.00;98775.16;4395327;79;43756;-76
2020/12/08 23:46:37;;;;;;;64.45;30.27;;;;;;;-0.31;100.00;98780.79;4433381;78;43410;-73
2020/12/08 23:52:39;;;;;;;58.33;27.00;;;;;;;-0.40;100.00;98773.86;4453422;78;43207;-74
2020/12/08 23:58:43;;;;;;;59.85;31.10;;;;;;;-0.29;100.00;98780.93;4398808;78;43039;-74
